createdAt,value
2017-09-19T00:00:40.750Z,9.56
2017-09-19T00:03:06.522Z,9.63
2017-09-19T00:05:32.283Z,9.67
2017-09-19T00:07:58.118Z,9.67
2017-09-19T00:10:23.894Z,9.65
2017-09-19T00:12:50.603Z,9.65
2017-09-19T00:15:16.419Z,9.59
2017-09-19T00:17:42.167Z,9.47
2017-09-19T00:20:07.943Z,9.64
2017-09-19T00:22:33.762Z,9.62
2017-09-19T00:24:59.527Z,9.70
2017-09-19T00:27:25.365Z,9.66
2017-09-19T00:29:51.791Z,9.72
2017-09-19T00:32:17.551Z,9.70
2017-09-19T00:34:43.358Z,9.66
2017-09-19T00:37:09.116Z,9.64
2017-09-19T00:39:34.871Z,9.56
2017-09-19T00:42:00.655Z,9.50
2017-09-19T00:44:26.407Z,9.34
2017-09-19T00:46:52.191Z,9.36
2017-09-19T00:49:17.975Z,9.33
2017-09-19T00:51:43.749Z,9.26
2017-09-19T00:54:09.495Z,9.07
2017-09-19T00:56:35.313Z,9.24
2017-09-19T00:59:01.114Z,9.15
2017-09-19T01:01:26.898Z,9.38
2017-09-19T01:03:52.654Z,9.51
2017-09-19T01:06:18.907Z,9.57
2017-09-19T01:08:44.687Z,9.56
2017-09-19T01:11:10.456Z,9.55
2017-09-19T01:13:36.215Z,9.53
2017-09-19T01:16:02.023Z,9.52
2017-09-19T01:18:27.790Z,9.48
2017-09-19T01:20:53.550Z,9.42
2017-09-19T01:23:19.350Z,9.50
2017-09-19T01:25:45.119Z,9.30
2017-09-19T01:28:11.546Z,9.48
2017-09-19T01:30:37.328Z,9.40
2017-09-19T01:33:03.174Z,9.45
2017-09-19T01:35:28.943Z,9.40
2017-09-19T01:37:54.723Z,9.31
2017-09-19T01:40:20.567Z,9.30
2017-09-19T01:42:46.340Z,9.32
2017-09-19T01:45:12.104Z,9.12
2017-09-19T01:47:37.882Z,9.09
2017-09-19T01:50:03.658Z,9.07
2017-09-19T01:52:29.449Z,9.07
2017-09-19T01:54:55.191Z,9.00
2017-09-19T01:57:21.030Z,8.98
2017-09-19T01:59:46.825Z,8.90
2017-09-19T02:02:12.568Z,8.82
2017-09-19T02:04:38.306Z,8.78
2017-09-19T02:07:04.125Z,8.76
2017-09-19T02:09:29.886Z,8.71
2017-09-19T02:11:55.637Z,8.56
2017-09-19T02:14:21.419Z,8.59
2017-09-19T02:16:47.173Z,8.52
2017-09-19T02:19:12.975Z,8.56
2017-09-19T02:21:38.752Z,8.52
2017-09-19T02:24:04.535Z,8.49
2017-09-19T02:26:30.355Z,8.50
2017-09-19T02:28:56.125Z,8.50
2017-09-19T02:31:21.863Z,8.50
2017-09-19T02:33:47.643Z,8.56
2017-09-19T02:36:14.407Z,8.57
2017-09-19T02:38:40.188Z,8.58
2017-09-19T02:43:34.290Z,8.56
2017-09-19T02:46:00.080Z,8.60
2017-09-19T02:48:25.860Z,8.63
2017-09-19T02:50:51.695Z,8.72
2017-09-19T02:53:17.477Z,8.70
2017-09-19T02:55:43.251Z,8.72
2017-09-19T02:58:09.078Z,8.84
2017-09-19T03:00:34.878Z,8.85
2017-09-19T03:03:00.639Z,8.90
2017-09-19T03:05:27.396Z,8.75
2017-09-19T03:07:53.170Z,8.72
2017-09-19T03:10:18.942Z,8.74
2017-09-19T03:12:44.715Z,8.87
2017-09-19T03:15:10.549Z,8.98
2017-09-19T03:17:36.304Z,9.02
2017-09-19T03:20:02.086Z,8.96
2017-09-19T03:22:27.867Z,8.96
2017-09-19T03:24:53.728Z,8.83
2017-09-19T03:27:19.547Z,8.91
2017-09-19T03:29:45.333Z,8.99
2017-09-19T03:32:11.127Z,9.08
2017-09-19T03:34:36.867Z,8.99
2017-09-19T03:37:02.636Z,9.06
2017-09-19T03:39:28.520Z,9.03
2017-09-19T03:41:54.293Z,9.12
2017-09-19T03:44:21.043Z,9.15
2017-09-19T03:46:46.926Z,9.14
2017-09-19T03:49:12.712Z,9.07
2017-09-19T03:51:38.503Z,9.04
2017-09-19T03:54:04.715Z,8.95
2017-09-19T03:56:30.499Z,8.66
2017-09-19T03:58:56.335Z,8.74
2017-09-19T04:01:22.094Z,8.68
2017-09-19T04:03:47.874Z,8.54
2017-09-19T04:06:13.686Z,8.51
2017-09-19T04:08:39.464Z,8.64
2017-09-19T04:11:05.279Z,8.71
2017-09-19T04:13:31.094Z,8.77
2017-09-19T04:15:56.934Z,8.79
2017-09-19T04:20:48.222Z,8.89
2017-09-19T04:23:13.984Z,8.87
2017-09-19T04:25:39.847Z,8.88
2017-09-19T04:28:05.708Z,8.95
2017-09-19T04:30:31.470Z,8.99
2017-09-19T04:32:57.227Z,9.06
2017-09-19T04:35:22.995Z,9.09
2017-09-19T04:37:48.770Z,9.04
2017-09-19T04:40:14.606Z,9.05
2017-09-19T04:42:40.386Z,8.88
2017-09-19T04:45:06.196Z,8.83
2017-09-19T04:47:31.953Z,8.90
2017-09-19T04:49:57.715Z,8.89
2017-09-19T04:52:23.486Z,8.83
2017-09-19T04:54:49.294Z,8.92
2017-09-19T04:57:15.048Z,8.96
2017-09-19T04:59:40.819Z,8.84
2017-09-19T05:02:06.643Z,8.84
2017-09-19T05:04:32.507Z,9.01
2017-09-19T05:06:58.255Z,9.02
2017-09-19T05:09:24.000Z,8.88
2017-09-19T05:11:53.022Z,8.92
2017-09-19T05:14:18.774Z,8.86
2017-09-19T05:16:44.571Z,8.94
2017-09-19T05:19:10.336Z,9.03
2017-09-19T05:21:36.091Z,9.07
2017-09-19T05:24:01.935Z,9.11
2017-09-19T05:26:27.691Z,9.15
2017-09-19T05:28:53.439Z,9.17
2017-09-19T05:31:19.215Z,9.17
2017-09-19T05:33:44.984Z,9.11
2017-09-19T05:36:10.727Z,9.23
2017-09-19T05:38:36.496Z,9.01
2017-09-19T05:41:02.334Z,9.08
2017-09-19T05:43:28.124Z,9.10
2017-09-19T05:45:53.956Z,9.13
2017-09-19T05:48:19.715Z,9.17
2017-09-19T05:50:45.515Z,9.19
2017-09-19T05:53:11.284Z,9.29
2017-09-19T05:55:37.034Z,9.32
2017-09-19T05:58:02.816Z,9.42
2017-09-19T06:00:28.566Z,9.44
2017-09-19T06:02:54.318Z,9.39
2017-09-19T06:05:20.099Z,9.38
2017-09-19T06:07:45.856Z,9.44
2017-09-19T06:10:11.631Z,9.61
2017-09-19T06:12:37.374Z,9.69
2017-09-19T06:15:03.171Z,9.73
2017-09-19T06:17:28.936Z,9.70
2017-09-19T06:19:54.718Z,9.85
2017-09-19T06:22:20.488Z,9.78
2017-09-19T06:24:46.286Z,9.70
2017-09-19T06:27:12.031Z,9.84
2017-09-19T06:29:37.786Z,9.71
2017-09-19T06:32:03.564Z,9.70
2017-09-19T06:34:29.312Z,9.75
2017-09-19T06:36:55.116Z,9.68
2017-09-19T06:39:20.859Z,9.09
2017-09-19T06:41:46.636Z,9.34
2017-09-19T06:44:12.427Z,9.52
2017-09-19T06:46:38.369Z,9.86
2017-09-19T06:49:04.135Z,10.01
2017-09-19T06:51:29.943Z,10.22
2017-09-19T06:53:55.745Z,10.42
2017-09-19T06:56:21.507Z,10.54
2017-09-19T06:58:47.268Z,10.63
2017-09-19T07:01:13.162Z,10.62
2017-09-19T07:03:38.924Z,10.52
2017-09-19T07:06:04.670Z,10.59
2017-09-19T07:08:30.464Z,10.47
2017-09-19T07:10:56.206Z,10.51
2017-09-19T07:13:22.003Z,10.35
2017-09-19T07:15:47.768Z,10.60
2017-09-19T07:18:13.543Z,10.45
2017-09-19T07:20:39.314Z,10.49
2017-09-19T07:23:05.111Z,10.56
2017-09-19T07:25:30.854Z,10.53
2017-09-19T07:27:56.602Z,10.46
2017-09-19T07:30:22.371Z,10.55
2017-09-19T07:32:48.167Z,10.62
2017-09-19T07:35:13.914Z,10.71
2017-09-19T07:37:39.662Z,10.76
2017-09-19T07:40:06.255Z,10.90
2017-09-19T07:42:32.016Z,11.06
2017-09-19T07:44:57.954Z,11.13
2017-09-19T07:47:23.743Z,11.23
2017-09-19T07:49:49.501Z,11.65
2017-09-19T07:52:15.260Z,11.95
2017-09-19T07:54:41.036Z,11.98
2017-09-19T07:57:06.786Z,11.64
2017-09-19T07:59:32.591Z,11.68
2017-09-19T08:01:58.379Z,11.79
2017-09-19T08:04:24.131Z,11.59
2017-09-19T08:06:49.890Z,11.94
2017-09-19T08:09:15.631Z,11.69
2017-09-19T08:11:41.414Z,11.70
2017-09-19T08:14:07.207Z,12.17
2017-09-19T08:16:32.959Z,12.58
2017-09-19T08:18:58.703Z,12.63
2017-09-19T08:21:24.505Z,12.95
2017-09-19T08:23:50.222Z,13.44
2017-09-19T08:26:16.005Z,13.78
2017-09-19T08:28:41.748Z,13.46
2017-09-19T08:31:07.494Z,14.10
2017-09-19T08:33:33.273Z,14.07
2017-09-19T08:35:59.016Z,14.52
2017-09-19T08:38:24.771Z,14.28
2017-09-19T08:40:50.575Z,13.70
2017-09-19T08:43:16.326Z,13.58
2017-09-19T08:45:42.094Z,13.91
2017-09-19T08:48:07.879Z,14.08
2017-09-19T08:50:33.655Z,14.34
2017-09-19T08:52:59.419Z,14.93
2017-09-19T08:55:25.206Z,13.53
2017-09-19T08:57:50.967Z,13.72
2017-09-19T09:00:16.780Z,13.11
2017-09-19T09:02:42.563Z,12.75
2017-09-19T09:05:08.343Z,12.95
2017-09-19T09:07:34.089Z,12.66
2017-09-19T09:09:59.867Z,12.73
2017-09-19T09:12:25.714Z,12.81
2017-09-19T09:14:51.479Z,13.02
2017-09-19T09:17:17.220Z,12.99
2017-09-19T09:19:43.015Z,12.82
2017-09-19T09:22:08.840Z,12.96
2017-09-19T09:24:34.596Z,12.85
2017-09-19T09:27:00.363Z,12.77
2017-09-19T09:29:26.178Z,12.86
2017-09-19T09:31:51.930Z,12.99
2017-09-19T09:34:17.676Z,13.21
2017-09-19T09:36:43.459Z,13.24
2017-09-19T09:39:09.202Z,13.04
2017-09-19T09:41:34.999Z,13.10
2017-09-19T09:44:00.747Z,13.29
2017-09-19T09:46:26.511Z,14.06
2017-09-19T09:48:52.337Z,13.85
2017-09-19T09:51:18.083Z,14.10
2017-09-19T09:53:43.875Z,13.85
2017-09-19T09:56:09.735Z,14.07
2017-09-19T09:58:35.536Z,13.77
2017-09-19T10:01:01.278Z,13.86
2017-09-19T10:03:27.031Z,13.65
2017-09-19T10:05:52.851Z,13.52
2017-09-19T10:08:18.609Z,13.93
2017-09-19T10:10:44.384Z,12.98
2017-09-19T10:13:10.163Z,12.99
2017-09-19T10:15:35.910Z,12.91
2017-09-19T10:18:01.671Z,13.26
2017-09-19T10:20:27.694Z,13.58
2017-09-19T10:22:53.459Z,13.64
2017-09-19T10:25:19.279Z,13.57
2017-09-19T10:27:45.027Z,13.70
2017-09-19T10:30:10.811Z,14.21
2017-09-19T10:32:36.554Z,14.50
2017-09-19T10:35:02.359Z,16.70
2017-09-19T10:37:28.108Z,18.33
2017-09-19T10:39:53.894Z,16.29
2017-09-19T10:42:19.658Z,15.61
2017-09-19T10:44:45.413Z,14.59
2017-09-19T10:47:11.194Z,14.28
2017-09-19T10:49:36.939Z,14.51
2017-09-19T10:52:02.742Z,14.48
2017-09-19T10:54:29.385Z,14.49
2017-09-19T10:56:55.174Z,14.56
2017-09-19T10:59:20.966Z,14.93
2017-09-19T11:01:46.715Z,15.98
2017-09-19T11:04:12.471Z,15.90
2017-09-19T11:06:38.246Z,15.54
2017-09-19T11:09:04.011Z,15.29
2017-09-19T11:11:29.860Z,15.16
2017-09-19T11:13:55.612Z,14.95
2017-09-19T11:16:21.379Z,14.66
2017-09-19T11:18:47.158Z,14.66
2017-09-19T11:21:12.959Z,14.30
2017-09-19T11:23:38.742Z,14.47
2017-09-19T11:26:04.594Z,14.14
2017-09-19T11:28:30.395Z,14.15
2017-09-19T11:30:56.199Z,13.99
2017-09-19T11:33:21.941Z,14.73
2017-09-19T11:35:47.694Z,17.95
2017-09-19T11:38:13.508Z,18.22
2017-09-19T11:40:39.288Z,16.86
2017-09-19T11:43:05.043Z,19.11
2017-09-19T11:45:30.822Z,18.41
2017-09-19T11:47:56.683Z,19.04
2017-09-19T11:50:22.555Z,18.97
2017-09-19T11:52:48.376Z,17.41
2017-09-19T11:55:14.187Z,17.07
2017-09-19T11:57:39.954Z,16.21
2017-09-19T12:00:05.727Z,15.51
2017-09-19T12:02:31.483Z,15.12
2017-09-19T12:04:57.291Z,14.98
2017-09-19T12:07:23.042Z,15.24
2017-09-19T12:09:48.786Z,15.25
2017-09-19T12:12:14.666Z,14.64
2017-09-19T12:14:41.483Z,15.53
2017-09-19T12:17:07.271Z,15.93
2017-09-19T12:19:33.041Z,16.48
2017-09-19T12:21:58.841Z,15.82
2017-09-19T12:24:24.639Z,16.95
2017-09-19T12:26:50.391Z,17.37
2017-09-19T12:29:16.134Z,18.52
2017-09-19T12:31:41.928Z,18.27
2017-09-19T12:34:07.702Z,17.14
2017-09-19T12:36:33.549Z,16.73
2017-09-19T12:38:59.332Z,17.68
2017-09-19T12:41:25.104Z,17.36
2017-09-19T12:43:50.907Z,17.29
2017-09-19T12:46:16.660Z,17.02
2017-09-19T12:48:42.408Z,17.06
2017-09-19T12:51:08.211Z,17.00
2017-09-19T12:53:33.963Z,16.86
2017-09-19T12:56:00.068Z,16.51
2017-09-19T12:58:25.855Z,16.21
2017-09-19T13:00:51.616Z,15.41
2017-09-19T13:03:17.412Z,16.03
2017-09-19T13:05:43.164Z,16.22
2017-09-19T13:08:08.922Z,15.74
2017-09-19T13:10:34.712Z,16.02
2017-09-19T13:13:00.495Z,16.19
2017-09-19T13:15:26.323Z,15.92
2017-09-19T13:17:52.101Z,15.52
2017-09-19T13:20:17.915Z,15.37
2017-09-19T13:22:43.662Z,15.71
2017-09-19T13:25:09.414Z,15.92
2017-09-19T13:27:35.204Z,15.87
2017-09-19T13:30:01.131Z,15.68
2017-09-19T13:32:39.526Z,15.70
2017-09-19T13:35:05.279Z,15.34
2017-09-19T13:37:31.071Z,15.41
2017-09-19T13:39:56.843Z,15.39
2017-09-19T13:42:22.599Z,15.45
2017-09-19T13:44:48.452Z,15.66
2017-09-19T13:47:14.194Z,15.59
2017-09-19T13:49:39.980Z,15.61
2017-09-19T13:52:05.726Z,15.83
2017-09-19T13:54:31.499Z,16.22
2017-09-19T13:56:57.293Z,15.29
2017-09-19T13:59:23.050Z,15.77
2017-09-19T14:01:48.802Z,15.80
2017-09-19T14:04:14.590Z,15.88
2017-09-19T14:06:40.423Z,15.86
2017-09-19T14:09:06.179Z,15.66
2017-09-19T14:11:31.943Z,15.52
2017-09-19T14:13:57.687Z,15.76
2017-09-19T14:16:23.551Z,15.57
2017-09-19T14:18:49.350Z,15.60
2017-09-19T14:21:15.175Z,15.88
2017-09-19T14:23:40.926Z,15.87
2017-09-19T14:26:06.762Z,15.79
2017-09-19T14:28:32.552Z,15.70
2017-09-19T14:30:58.415Z,15.94
2017-09-19T14:33:24.175Z,15.49
2017-09-19T14:35:50.047Z,15.80
2017-09-19T14:38:15.883Z,15.74
2017-09-19T14:40:41.663Z,15.43
2017-09-19T14:43:07.438Z,16.01
2017-09-19T14:45:33.191Z,15.25
2017-09-19T14:47:58.982Z,15.38
2017-09-19T14:50:24.771Z,15.59
2017-09-19T14:52:50.511Z,15.97
2017-09-19T14:55:16.303Z,16.46
2017-09-19T14:57:42.110Z,17.16
2017-09-19T15:00:07.875Z,18.13
2017-09-19T15:02:33.635Z,18.63
2017-09-19T15:04:59.490Z,19.28
2017-09-19T15:07:25.236Z,18.21
2017-09-19T15:09:51.023Z,17.38
2017-09-19T15:12:16.807Z,17.08
2017-09-19T15:14:42.563Z,16.04
2017-09-19T15:17:08.398Z,15.80
2017-09-19T15:19:34.135Z,16.31
2017-09-19T15:21:59.875Z,15.60
2017-09-19T15:24:25.702Z,15.04
2017-09-19T15:26:51.551Z,14.74
2017-09-19T15:29:17.314Z,14.57
2017-09-19T15:31:43.116Z,14.24
2017-09-19T15:34:08.861Z,13.40
2017-09-19T15:36:34.652Z,13.86
2017-09-19T15:39:00.421Z,13.53
2017-09-19T15:41:26.222Z,13.35
2017-09-19T15:43:52.002Z,13.20
2017-09-19T15:46:17.759Z,12.79
2017-09-19T15:48:43.561Z,13.19
2017-09-19T15:51:09.415Z,12.41
2017-09-19T15:53:35.251Z,12.89
2017-09-19T15:56:01.191Z,12.75
2017-09-19T15:58:26.935Z,12.78
2017-09-19T16:00:52.728Z,12.70
2017-09-19T16:03:18.527Z,12.63
2017-09-19T16:05:44.363Z,12.32
2017-09-19T16:08:10.130Z,12.42
2017-09-19T16:10:35.879Z,12.18
2017-09-19T16:13:01.701Z,12.15
2017-09-19T16:15:27.471Z,12.30
2017-09-19T16:17:53.291Z,12.39
2017-09-19T16:20:19.079Z,12.16
2017-09-19T16:22:44.867Z,12.32
2017-09-19T16:25:10.656Z,12.06
2017-09-19T16:27:36.403Z,12.09
2017-09-19T16:30:02.243Z,11.90
2017-09-19T16:32:28.070Z,11.96
2017-09-19T16:34:53.825Z,12.06
2017-09-19T16:37:19.628Z,11.89
2017-09-19T16:39:45.392Z,11.69
2017-09-19T16:42:11.159Z,11.68
2017-09-19T16:44:37.099Z,11.52
2017-09-19T16:47:02.860Z,11.57
2017-09-19T16:49:28.636Z,11.75
2017-09-19T16:51:54.486Z,11.73
2017-09-19T16:54:20.223Z,11.66
2017-09-19T16:56:46.027Z,11.54
2017-09-19T16:59:11.768Z,11.75
2017-09-19T17:01:37.522Z,11.87
2017-09-19T17:04:03.319Z,11.46
2017-09-19T17:06:29.063Z,11.57
2017-09-19T17:08:54.814Z,11.59
2017-09-19T17:11:20.622Z,11.43
2017-09-19T17:13:46.418Z,11.57
2017-09-19T17:16:12.217Z,11.63
2017-09-19T17:18:37.964Z,11.82
2017-09-19T17:21:03.763Z,11.65
2017-09-19T17:23:29.547Z,11.72
2017-09-19T17:25:55.315Z,11.54
2017-09-19T17:28:21.055Z,11.44
2017-09-19T17:30:46.882Z,11.48
2017-09-19T17:33:12.646Z,11.44
2017-09-19T17:35:38.402Z,11.35
2017-09-19T17:38:04.184Z,11.41
2017-09-19T17:40:29.955Z,11.21
2017-09-19T17:42:55.750Z,11.25
2017-09-19T17:45:21.547Z,11.20
2017-09-19T17:47:47.319Z,11.13
2017-09-19T17:50:13.067Z,11.16
2017-09-19T17:52:38.923Z,11.10
2017-09-19T17:55:04.675Z,10.99
2017-09-19T17:57:30.421Z,11.13
2017-09-19T17:59:56.211Z,10.95
2017-09-19T18:02:22.011Z,10.86
2017-09-19T18:04:47.783Z,10.87
2017-09-19T18:07:13.667Z,10.87
2017-09-19T18:09:39.415Z,10.84
2017-09-19T18:12:05.219Z,10.81
2017-09-19T18:14:31.028Z,10.97
2017-09-19T18:16:56.803Z,10.90
2017-09-19T18:19:22.579Z,10.87
2017-09-19T18:21:48.315Z,10.81
2017-09-19T18:24:14.107Z,10.80
2017-09-19T18:26:39.871Z,10.88
2017-09-19T18:29:05.679Z,10.87
2017-09-19T18:31:31.448Z,10.84
2017-09-19T18:33:57.187Z,10.91
2017-09-19T18:36:23.003Z,11.02
2017-09-19T18:38:48.775Z,11.04
2017-09-19T18:41:15.699Z,10.88
2017-09-19T18:43:41.455Z,10.82
2017-09-19T18:46:07.242Z,10.77
2017-09-19T18:48:32.994Z,10.74
2017-09-19T18:50:58.759Z,10.74
2017-09-19T18:53:24.535Z,10.78
2017-09-19T18:55:50.445Z,10.85
2017-09-19T18:58:16.199Z,10.63
2017-09-19T19:00:41.953Z,10.42
2017-09-19T19:03:07.715Z,10.50
2017-09-19T19:05:33.461Z,10.32
2017-09-19T19:07:59.234Z,10.27
2017-09-19T19:10:25.034Z,10.33
2017-09-19T19:12:50.822Z,10.42
2017-09-19T19:15:16.586Z,10.52
2017-09-19T19:17:42.354Z,10.42
2017-09-19T19:20:08.194Z,10.41
2017-09-19T19:22:33.940Z,10.37
2017-09-19T19:24:59.694Z,10.40
2017-09-19T19:27:25.471Z,10.39
2017-09-19T19:29:51.217Z,10.36
2017-09-19T19:32:17.079Z,10.32
2017-09-19T19:34:42.919Z,10.38
2017-09-19T19:37:08.696Z,10.42
2017-09-19T19:39:34.806Z,10.43
2017-09-19T19:42:00.611Z,10.17
2017-09-19T19:44:26.428Z,10.15
2017-09-19T19:46:52.211Z,10.21
2017-09-19T19:49:18.014Z,10.29
2017-09-19T19:51:43.854Z,10.27
2017-09-19T19:54:09.638Z,10.21
2017-09-19T19:56:35.394Z,10.21
2017-09-19T19:59:01.176Z,10.13
2017-09-19T20:01:27.101Z,9.95
2017-09-19T20:03:52.865Z,9.95
2017-09-19T20:06:18.703Z,10.09
2017-09-19T20:08:44.444Z,10.13
2017-09-19T20:11:10.300Z,10.19
2017-09-19T20:13:36.092Z,10.34
2017-09-19T20:16:01.834Z,10.28
2017-09-19T20:18:27.674Z,10.31
2017-09-19T20:20:53.470Z,10.24
2017-09-19T20:23:19.238Z,10.29
2017-09-19T20:25:45.781Z,10.25
2017-09-19T20:28:11.542Z,10.28
2017-09-19T20:30:37.318Z,10.27
2017-09-19T20:33:03.113Z,10.33
2017-09-19T20:35:28.854Z,10.40
2017-09-19T20:37:54.658Z,10.06
2017-09-19T20:40:20.454Z,9.97
2017-09-19T20:42:46.205Z,10.09
2017-09-19T20:45:11.959Z,10.37
2017-09-19T20:47:37.753Z,10.35
2017-09-19T20:50:03.522Z,10.40
2017-09-19T20:52:29.267Z,10.29
2017-09-19T20:54:55.056Z,10.28
2017-09-19T20:57:20.823Z,10.36
2017-09-19T20:59:46.612Z,10.36
2017-09-19T21:02:12.419Z,10.36
2017-09-19T21:04:44.293Z,10.30
2017-09-19T21:07:16.402Z,10.30
2017-09-19T21:09:48.229Z,10.28
2017-09-19T21:12:20.180Z,10.39
2017-09-19T21:14:52.043Z,10.31
2017-09-19T21:17:23.879Z,10.35
2017-09-19T21:19:49.606Z,10.29
2017-09-19T21:22:15.391Z,10.34
2017-09-19T21:24:41.187Z,10.39
2017-09-19T21:27:06.963Z,10.32
2017-09-19T21:29:33.992Z,10.34
2017-09-19T21:31:59.772Z,10.42
2017-09-19T21:34:25.522Z,10.36
2017-09-19T21:36:52.155Z,10.41
2017-09-19T21:39:17.910Z,10.44
2017-09-19T21:41:43.663Z,10.36
2017-09-19T21:44:09.438Z,10.29
2017-09-19T21:46:35.207Z,10.27
2017-09-19T21:49:00.983Z,10.34
2017-09-19T21:51:26.770Z,10.21
2017-09-19T21:53:52.538Z,10.24
2017-09-19T21:56:18.283Z,10.30
2017-09-19T21:58:44.075Z,10.22
2017-09-19T22:01:09.854Z,10.27
2017-09-19T22:03:35.640Z,10.21
2017-09-19T22:06:01.392Z,10.26
2017-09-19T22:08:28.091Z,10.27
2017-09-19T22:10:53.839Z,10.26
2017-09-19T22:13:19.588Z,10.25
2017-09-19T22:15:45.378Z,10.22
2017-09-19T22:18:11.130Z,10.09
2017-09-19T22:20:36.910Z,9.92
2017-09-19T22:23:02.693Z,9.99
2017-09-19T22:25:28.466Z,9.63
2017-09-19T22:27:54.311Z,9.88
2017-09-19T22:30:20.094Z,9.87
2017-09-19T22:32:45.871Z,10.01
2017-09-19T22:35:11.678Z,10.22
2017-09-19T22:37:37.455Z,9.95
2017-09-19T22:40:03.303Z,10.01
2017-09-19T22:42:29.054Z,10.13
2017-09-19T22:44:54.827Z,10.23
2017-09-19T22:47:20.587Z,10.29
2017-09-19T22:49:46.367Z,10.31
2017-09-19T22:52:12.115Z,10.28
2017-09-19T22:54:37.860Z,10.28
2017-09-19T22:57:03.637Z,10.36
2017-09-19T22:59:29.394Z,10.25
2017-09-19T23:01:55.226Z,10.24
2017-09-19T23:04:21.015Z,10.28
2017-09-19T23:06:46.822Z,10.31
2017-09-19T23:09:13.061Z,10.27
2017-09-19T23:11:38.834Z,10.17
2017-09-19T23:14:04.590Z,10.21
2017-09-19T23:16:30.362Z,10.28
2017-09-19T23:18:56.112Z,10.29
2017-09-19T23:21:22.846Z,10.28
2017-09-19T23:23:48.603Z,10.25
2017-09-19T23:26:14.463Z,10.26
2017-09-19T23:28:40.238Z,10.28
2017-09-19T23:31:06.010Z,10.32
2017-09-19T23:33:31.794Z,10.28
2017-09-19T23:35:57.543Z,10.30
2017-09-19T23:38:23.375Z,10.24
2017-09-19T23:40:49.351Z,10.26
2017-09-19T23:43:15.135Z,10.27
2017-09-19T23:45:40.901Z,10.29
2017-09-19T23:48:06.638Z,10.25
2017-09-19T23:50:32.399Z,10.35
2017-09-19T23:52:58.162Z,10.41
2017-09-19T23:55:23.934Z,10.33
2017-09-19T23:57:49.774Z,10.35
